Aviation Digital Data Service (ADDS)

Output produced by METARs form (2006 UTC 25 August 2016)
found at http://aviationweather.gov/adds/metars/
 
KBUF 251739Z 2518/2618 24015KT P6SM SCT035 BKN050 
     FM252300 25007KT P6SM VCTS BKN035CB BKN050 
     FM260300 22004KT 4SM BR BKN030 
     FM260800 VRB03KT 4SM BR BKN007 
     FM261400 24005KT P6SM FEW250